Time;durP1;ratioP1;P1;durP2;ratioP2;P2;SDS_P1;SDS_P2;PMS_P1;PMS_P2;Temp;Humidity;BMP_temperature;BMP_pressure;BME280_temperature;BME280_humidity;BME280_pressure;Samples;Min_cycle;Max_cycle;Signal;HPM_P1;HPM_P2
2023/10/18 00:00:44;;;;;;;0.08;0.08;;;;;;;5.25;59.47;100149.44;5332068;26;20121;-95
2023/10/18 00:03:03;;;;;;;6.07;1.00;;;;;;;5.19;59.47;100154.59;5336445;26;20052;-94
2023/10/18 00:05:29;;;;;;;0.10;0.10;;;;;;;5.27;59.47;100149.41;5331758;26;20347;-94
2023/10/18 00:07:57;;;;;;;2.72;1.17;;;;;;;5.15;59.46;100152.87;5331465;26;20111;-94
2023/10/18 00:10:23;;;;;;;1.75;0.73;;;;;;;5.22;59.46;100150.31;5334261;26;20740;-95
2023/10/18 00:12:52;;;;;;;2.75;0.75;;;;;;;5.36;59.48;100136.47;5314234;26;20124;-95
2023/10/18 00:15:18;;;;;;;0.22;0.22;;;;;;;5.06;59.46;100127.12;5335479;26;20056;-95
2023/10/18 00:17:46;;;;;;;0.10;0.10;;;;;;;5.01;59.47;100132.31;5336927;26;20083;-94
2023/10/18 00:20:16;;;;;;;1.12;0.90;;;;;;;4.92;59.45;100127.16;5335958;26;20060;-94
2023/10/18 00:22:46;;;;;;;0.00;0.00;;;;;;;4.86;59.44;100128.06;5356762;26;20094;-95
2023/10/18 00:25:12;;;;;;;0.00;0.00;;;;;;;4.94;59.46;100140.91;5337979;26;20024;-95
2023/10/18 00:27:38;;;;;;;1.65;0.55;;;;;;;5.08;59.45;100144.31;5316459;26;20060;-95
2023/10/18 00:30:11;;;;;;;1.65;1.00;;;;;;;5.03;59.46;100137.47;5318829;26;20028;-95
2023/10/18 00:32:38;;;;;;;0.20;0.05;;;;;;;5.12;59.46;100140.84;5319945;26;20052;-94
2023/10/18 00:35:31;;;;;;;0.75;0.75;;;;;;;4.98;59.45;100134.91;5338246;26;20047;-95
2023/10/18 00:38:00;;;;;;;0.47;0.47;;;;;;;4.99;59.45;100128.03;5327205;26;20069;-95
2023/10/18 00:43:22;;;;;;;0.10;0.10;;;;;;;4.78;59.44;100124.66;5357379;26;20071;-94
2023/10/18 00:45:51;;;;;;;1.25;1.15;;;;;;;4.66;59.44;100123.78;5336961;26;20117;-92
2023/10/18 00:48:19;;;;;;;1.73;1.60;;;;;;;4.79;59.45;100126.34;5337580;26;20112;-94
2023/10/18 00:50:46;;;;;;;2.12;0.95;;;;;;;4.89;59.45;100120.28;5320247;26;20028;-94
2023/10/18 00:53:17;;;;;;;12.00;0.98;;;;;;;4.88;59.45;100110.84;5335019;26;20056;-93
2023/10/18 00:55:42;;;;;;;0.00;0.00;;;;;;;4.93;59.45;100115.97;5336119;26;20075;-94
2023/10/18 00:58:08;;;;;;;4.37;1.75;;;;;;;4.85;59.44;100115.16;5335754;26;20125;-94
2023/10/18 01:00:40;;;;;;;0.85;0.85;;;;;;;4.83;59.44;100117.75;5336147;26;20078;-94
2023/10/18 01:03:09;;;;;;;0.00;0.00;;;;;;;4.71;59.43;100111.75;5319955;26;20064;-94
2023/10/18 01:05:35;;;;;;;1.50;1.40;;;;;;;4.59;59.43;100102.34;5334598;26;20076;-94
2023/10/18 01:08:06;;;;;;;0.40;0.40;;;;;;;4.81;59.45;100103.12;5337160;26;20078;-94
2023/10/18 01:10:32;;;;;;;0.10;0.10;;;;;;;4.69;59.44;100092.84;5337121;26;20079;-93
2023/10/18 01:12:58;;;;;;;0.00;0.00;;;;;;;4.24;59.42;100095.50;5333510;26;20071;-93
2023/10/18 01:15:27;;;;;;;1.65;1.55;;;;;;;4.29;59.42;100091.22;5337169;26;20049;-93
2023/10/18 01:17:54;;;;;;;0.00;0.00;;;;;;;4.27;59.42;100090.38;5334751;26;20071;-93
2023/10/18 01:20:41;;;;;;;0.00;0.00;;;;;;;4.32;59.41;100090.34;5333648;26;20056;-93
2023/10/18 01:23:07;;;;;;;0.00;0.00;;;;;;;4.34;59.41;100092.94;5340919;26;20106;-94
2023/10/18 01:25:34;;;;;;;0.20;0.20;;;;;;;4.26;59.41;100087.78;5334650;26;20062;-94
2023/10/18 01:27:59;;;;;;;0.55;0.55;;;;;;;4.23;59.41;100087.78;5333096;26;20064;-93
2023/10/18 01:30:24;;;;;;;0.95;0.37;;;;;;;4.32;59.41;100082.62;5333904;26;20079;-93
2023/10/18 01:32:51;;;;;;;0.37;0.37;;;;;;;4.33;59.41;100092.06;5332016;26;20385;-95
2023/10/18 01:35:16;;;;;;;0.37;0.37;;;;;;;4.31;59.42;100091.22;5333766;26;20683;-95
2023/10/18 01:37:43;;;;;;;0.52;0.52;;;;;;;4.21;59.41;100090.34;5333844;26;20068;-94
2023/10/18 01:40:21;;;;;;;0.22;0.22;;;;;;;4.29;59.42;100080.91;5333267;26;20071;-94
2023/10/18 01:42:50;;;;;;;0.00;0.00;;;;;;;4.20;59.40;100085.19;5338379;26;20029;-94
2023/10/18 01:45:22;;;;;;;0.10;0.10;;;;;;;4.31;59.42;100078.34;5338860;26;20032;-92
2023/10/18 01:47:49;;;;;;;2.62;1.12;;;;;;;4.20;59.40;100090.34;5351946;26;20064;-94
2023/10/18 01:50:15;;;;;;;0.00;0.00;;;;;;;4.11;59.40;100080.94;5334148;26;20429;-93
2023/10/18 01:52:42;;;;;;;0.20;0.20;;;;;;;4.16;59.41;100080.91;5331737;26;20055;-93
2023/10/18 01:55:09;;;;;;;0.03;0.03;;;;;;;4.09;59.40;100084.37;5332748;26;20122;-93
2023/10/18 01:57:34;;;;;;;0.00;0.00;;;;;;;4.12;59.40;100086.94;5316841;26;20075;-93
2023/10/18 02:00:03;;;;;;;0.20;0.10;;;;;;;4.08;59.40;100077.50;5334128;26;20368;-93
2023/10/18 02:02:32;;;;;;;0.20;0.20;;;;;;;4.15;59.41;100082.62;5334669;26;20024;-93
2023/10/18 02:04:57;;;;;;;0.43;0.43;;;;;;;4.04;59.40;100086.94;5333081;26;20056;-93
2023/10/18 02:07:22;;;;;;;0.22;0.22;;;;;;;4.18;59.41;100080.06;5352337;26;20084;-92
2023/10/18 02:09:57;;;;;;;0.00;0.00;;;;;;;4.20;59.40;100082.62;5334539;26;20064;-93
2023/10/18 02:12:23;;;;;;;0.00;0.00;;;;;;;3.85;59.39;100090.38;5350439;26;20064;-93
2023/10/18 02:14:49;;;;;;;2.12;0.47;;;;;;;4.01;59.40;100086.91;5350559;26;20048;-93
2023/10/18 02:17:18;;;;;;;0.30;0.30;;;;;;;3.89;59.39;100086.94;5332079;26;20428;-93
2023/10/18 02:19:44;;;;;;;0.00;0.00;;;;;;;3.62;59.38;100087.78;5332195;26;20743;-94
2023/10/18 02:22:10;;;;;;;0.90;0.45;;;;;;;3.67;59.37;100086.91;5335524;26;20060;-93
2023/10/18 02:24:36;;;;;;;0.22;0.22;;;;;;;3.70;59.38;100091.22;5331350;26;20051;-94
2023/10/18 02:27:03;;;;;;;0.93;0.65;;;;;;;3.78;59.39;100084.34;5336177;26;20067;-95
2023/10/18 02:29:31;;;;;;;0.03;0.03;;;;;;;3.72;59.38;100089.50;5354259;26;20070;-95
2023/10/18 02:31:57;;;;;;;0.30;0.30;;;;;;;3.87;59.39;100091.22;5316012;26;20051;-94
2023/10/18 02:34:25;;;;;;;0.28;0.28;;;;;;;3.82;59.38;100093.81;5340705;26;20066;-95
2023/10/18 02:36:55;;;;;;;0.00;0.00;;;;;;;3.79;59.39;100088.66;5319006;26;20036;-94
2023/10/18 02:39:24;;;;;;;0.25;0.25;;;;;;;3.81;59.38;100088.66;5324848;26;20749;-93
2023/10/18 02:41:51;;;;;;;0.25;0.25;;;;;;;3.76;59.39;100093.78;5343347;26;20060;-93
2023/10/18 02:44:22;;;;;;;0.00;0.00;;;;;;;3.61;59.38;100093.78;5355926;26;20037;-95
2023/10/18 02:46:52;;;;;;;0.90;0.62;;;;;;;3.66;59.38;100090.34;5340728;26;20029;-92
2023/10/18 02:49:18;;;;;;;0.00;0.00;;;;;;;3.59;59.37;100095.50;5340690;26;20028;-94
2023/10/18 02:51:47;;;;;;;0.15;0.15;;;;;;;3.62;59.38;100098.94;5354588;26;20062;-94
2023/10/18 02:56:41;;;;;;;0.82;0.82;;;;;;;3.53;59.38;100090.31;5355123;26;20065;-94
2023/10/18 02:59:07;;;;;;;0.00;0.00;;;;;;;3.49;59.37;100086.88;5318510;26;20116;-94
2023/10/18 03:01:43;;;;;;;0.30;0.30;;;;;;;3.69;59.38;100090.34;5339985;26;20060;-93
2023/10/18 03:05:05;;;;;;;1.08;0.60;;;;;;;3.65;59.37;100095.50;5320488;26;20060;-96
2023/10/18 03:07:49;;;;;;;0.00;0.00;;;;;;;3.54;59.38;100082.59;5370827;26;20075;-92
2023/10/18 03:10:27;;;;;;;0.80;0.70;;;;;;;3.45;59.36;100081.72;5334177;26;20068;-94
2023/10/18 03:12:53;;;;;;;1.55;0.88;;;;;;;3.53;59.38;100083.44;5336409;26;20020;-94
2023/10/18 03:15:20;;;;;;;5.22;1.60;;;;;;;3.50;59.37;100085.16;5352802;26;20106;-93
2023/10/18 03:17:49;;;;;;;0.10;0.10;;;;;;;3.44;59.36;100077.44;5336337;26;20087;-94
2023/10/18 03:20:26;;;;;;;0.20;0.20;;;;;;;3.50;59.37;100073.16;5336820;26;20070;-94
2023/10/18 03:22:51;;;;;;;2.15;1.95;;;;;;;3.57;59.37;100074.91;5334290;26;20056;-94
2023/10/18 03:25:17;;;;;;;0.10;0.10;;;;;;;3.39;59.37;100073.16;5330979;26;20064;-94
2023/10/18 03:27:49;;;;;;;0.00;0.00;;;;;;;3.31;59.36;100074.84;5352788;26;20067;-94
2023/10/18 03:30:19;;;;;;;0.00;0.00;;;;;;;3.35;59.36;100081.72;5317000;26;20056;-94
2023/10/18 03:32:50;;;;;;;1.00;1.00;;;;;;;3.38;59.36;100070.56;5315163;26;20115;-94
2023/10/18 03:35:20;;;;;;;0.20;0.20;;;;;;;3.38;59.36;100079.16;5333809;26;20059;-93
2023/10/18 03:37:46;;;;;;;0.00;0.00;;;;;;;3.39;59.37;100073.16;5333311;26;20056;-95
2023/10/18 03:40:24;;;;;;;2.25;0.62;;;;;;;3.34;59.36;100062.00;5337232;26;20073;-95
2023/10/18 03:42:51;;;;;;;0.60;0.60;;;;;;;3.21;59.35;100060.22;5336095;26;20020;-95
2023/10/18 03:45:22;;;;;;;0.65;0.35;;;;;;;3.27;59.36;100056.81;5351336;26;20056;-94
2023/10/18 03:47:57;;;;;;;0.90;0.32;;;;;;;3.20;59.36;100053.38;5337145;26;20080;-94
2023/10/18 03:50:29;;;;;;;0.45;0.15;;;;;;;3.08;59.34;100069.62;5325679;26;20727;-93
2023/10/18 03:52:55;;;;;;;0.10;0.10;;;;;;;3.10;59.35;100067.06;5341821;26;20761;-94
2023/10/18 03:55:36;;;;;;;0.98;0.70;;;;;;;3.13;59.35;100066.22;5352350;26;20066;-93
2023/10/18 03:58:04;;;;;;;0.20;0.20;;;;;;;3.22;59.35;100061.09;5334760;26;20079;-95
2023/10/18 04:00:37;;;;;;;0.10;0.10;;;;;;;3.22;59.35;100063.66;5333595;26;20086;-94
2023/10/18 04:03:08;;;;;;;1.70;1.58;;;;;;;3.19;59.35;100069.66;5354336;26;20064;-94
2023/10/18 04:05:45;;;;;;;0.10;0.10;;;;;;;3.15;59.35;100070.50;5338684;26;20055;-95
2023/10/18 04:08:15;;;;;;;0.10;0.10;;;;;;;3.14;59.35;100073.94;5338395;26;20029;-94
2023/10/18 04:10:43;;;;;;;0.00;0.00;;;;;;;3.03;59.35;100070.44;5319409;26;20113;-93
2023/10/18 04:13:12;;;;;;;5.28;2.22;;;;;;;3.01;59.34;100070.44;5316260;26;20056;-94
2023/10/18 04:15:39;;;;;;;0.52;0.52;;;;;;;3.13;59.35;100069.66;5334145;26;20062;-94
2023/10/18 04:20:34;;;;;;;0.10;0.10;;;;;;;2.99;59.34;100072.16;5357378;26;20060;-95
2023/10/18 04:23:02;;;;;;;0.77;0.77;;;;;;;2.97;59.34;100075.59;5315900;26;20020;-95
2023/10/18 04:25:33;;;;;;;0.22;0.22;;;;;;;2.92;59.33;100075.56;5332291;26;20396;-95
2023/10/18 04:27:59;;;;;;;0.00;0.00;;;;;;;2.95;59.33;100079.88;5331852;26;20065;-94
2023/10/18 04:30:31;;;;;;;0.00;0.00;;;;;;;2.89;59.34;100080.72;5315424;26;20037;-94
2023/10/18 04:33:24;;;;;;;0.10;0.10;;;;;;;2.94;59.33;100080.72;5315318;26;20056;-94
2023/10/18 04:35:52;;;;;;;0.00;0.00;;;;;;;2.96;59.34;100074.72;5320718;26;20102;-94
2023/10/18 04:38:37;;;;;;;0.47;0.47;;;;;;;3.00;59.34;100083.31;5331896;26;20063;-93
2023/10/18 04:41:08;;;;;;;0.00;0.00;;;;;;;2.92;59.33;100085.00;5353663;26;20064;-94
2023/10/18 04:43:34;;;;;;;0.70;0.70;;;;;;;2.87;59.33;100087.56;5334372;26;20039;-94
2023/10/18 04:46:04;;;;;;;4.15;0.95;;;;;;;2.84;59.33;100079.84;5335679;26;20637;-95
2023/10/18 04:51:27;;;;;;;0.65;0.65;;;;;;;2.94;59.33;100080.72;5356192;26;20125;-94
2023/10/18 04:54:03;;;;;;;1.12;0.82;;;;;;;2.99;59.34;100079.88;5336508;26;20060;-95
2023/10/18 04:56:37;;;;;;;0.20;0.20;;;;;;;3.04;59.34;100072.16;5316175;26;20024;-95
2023/10/18 05:01:56;;;;;;;0.00;0.00;;;;;;;2.81;59.33;100084.06;5338240;26;20630;-95
2023/10/18 05:04:24;;;;;;;0.00;0.00;;;;;;;2.97;59.34;100070.44;5334917;26;20070;-95
2023/10/18 05:06:56;;;;;;;0.43;0.43;;;;;;;3.12;59.35;100083.38;5314496;26;20048;-95
2023/10/18 05:09:34;;;;;;;0.10;0.10;;;;;;;2.96;59.34;100074.72;5315990;26;20056;-95
2023/10/18 05:12:47;;;;;;;0.10;0.10;;;;;;;2.96;59.34;100084.16;5319501;26;20060;-95
2023/10/18 05:17:26;;;;;;;0.00;0.00;;;;;;;2.97;59.34;100081.59;5351189;26;20105;-94
2023/10/18 05:19:52;;;;;;;0.47;0.47;;;;;;;3.04;59.34;100079.88;5313933;26;20193;-94
2023/10/18 05:22:20;;;;;;;0.00;0.00;;;;;;;2.92;59.33;100088.44;5332729;26;20401;-93
2023/10/18 05:24:54;;;;;;;0.22;0.22;;;;;;;3.17;59.34;100083.38;5335581;26;20080;-95
2023/10/18 05:27:24;;;;;;;0.05;0.05;;;;;;;3.08;59.34;100091.94;5315889;26;20111;-94
2023/10/18 05:29:53;;;;;;;0.37;0.37;;;;;;;3.02;59.35;100095.31;5332118;26;20025;-95
2023/10/18 05:37:50;;;;;;;0.57;0.52;;;;;;;2.83;59.33;100098.66;5356954;26;20052;-94
2023/10/18 05:43:03;;;;;;;1.45;0.65;;;;;;;3.09;59.34;100101.37;5337240;26;20100;-95
2023/10/18 05:45:32;;;;;;;0.03;0.03;;;;;;;3.15;59.35;100101.37;5331283;26;20056;-94
2023/10/18 05:48:06;;;;;;;0.77;0.77;;;;;;;3.67;59.38;100093.78;5315423;26;20031;-95
2023/10/18 05:50:35;;;;;;;0.00;0.00;;;;;;;3.80;59.38;100092.94;5315294;26;20125;-95
2023/10/18 05:53:10;;;;;;;0.47;0.47;;;;;;;3.72;59.38;100092.06;5335630;26;20088;-93
2023/10/18 05:55:38;;;;;;;3.20;0.65;;;;;;;3.67;59.38;100086.06;5317350;26;20105;-94
2023/10/18 05:58:04;;;;;;;0.68;0.65;;;;;;;3.84;59.39;100083.50;5331077;26;20065;-94
2023/10/18 06:00:32;;;;;;;0.40;0.40;;;;;;;3.91;59.40;100080.94;5301612;26;215278;-95
2023/10/18 06:03:01;;;;;;;0.55;0.55;;;;;;;3.91;59.40;100088.66;5318636;26;20138;-95
2023/10/18 06:05:38;;;;;;;0.88;0.88;;;;;;;4.15;59.41;100080.06;5330903;26;20056;-94
2023/10/18 06:08:07;;;;;;;0.10;0.10;;;;;;;4.57;59.42;100088.59;5331908;26;20062;-95
2023/10/18 06:10:38;;;;;;;0.70;0.70;;;;;;;4.61;59.43;100092.88;5331262;26;20121;-94
2023/10/18 06:13:09;;;;;;;0.17;0.17;;;;;;;4.58;59.43;100086.00;5331900;26;20229;-94
2023/10/18 06:15:38;;;;;;;1.77;1.67;;;;;;;4.57;59.43;100094.59;5332149;26;20085;-94
2023/10/18 06:18:06;;;;;;;1.17;0.45;;;;;;;4.66;59.44;100101.44;5331327;26;20072;-95
2023/10/18 06:20:37;;;;;;;0.00;0.00;;;;;;;4.71;59.43;100109.16;5330840;26;20067;-94
2023/10/18 06:23:08;;;;;;;0.57;0.57;;;;;;;4.78;59.44;100108.31;5313286;26;20662;-94
2023/10/18 06:25:35;;;;;;;0.00;0.00;;;;;;;4.99;59.45;100105.66;5331597;26;20121;-94
2023/10/18 06:28:01;;;;;;;1.65;1.35;;;;;;;5.16;59.47;100103.84;5312940;26;20034;-95
2023/10/18 06:30:26;;;;;;;0.20;0.20;;;;;;;5.41;59.48;100106.31;5330445;26;20099;-96
2023/10/18 06:32:51;;;;;;;1.27;1.02;;;;;;;5.48;59.48;100108.00;5330340;26;20087;-95
2023/10/18 06:35:26;;;;;;;0.68;0.65;;;;;;;5.48;59.48;100105.44;5348892;26;20066;-94
2023/10/18 06:37:52;;;;;;;0.30;0.30;;;;;;;5.61;59.49;100099.31;5331633;26;20123;-95
2023/10/18 06:42:49;;;;;;;0.57;0.57;;;;;;;6.04;59.51;100104.22;5349948;26;20413;-95
2023/10/18 06:45:25;;;;;;;0.30;0.30;;;;;;;6.14;59.52;100103.25;5311750;26;20126;-95
2023/10/18 06:47:54;;;;;;;2.40;0.77;;;;;;;6.27;59.52;100104.03;5315411;26;20048;-95
2023/10/18 06:50:26;;;;;;;0.32;0.32;;;;;;;6.42;59.54;100104.75;5330876;26;20065;-95
2023/10/18 06:52:53;;;;;;;0.73;0.73;;;;;;;6.53;59.54;100108.94;5314486;26;20081;-95
2023/10/18 07:00:53;;;;;;;0.55;0.55;;;;;;;7.19;59.58;100085.78;5351883;26;20079;-95
2023/10/18 07:03:24;;;;;;;4.68;1.90;;;;;;;7.32;59.58;100087.31;5330821;26;20429;-95
2023/10/18 07:05:52;;;;;;;1.15;1.00;;;;;;;7.59;59.60;100089.53;5315567;26;20064;-95
2023/10/18 07:08:20;;;;;;;3.20;1.52;;;;;;;7.88;59.62;100085.66;5339267;26;20062;-95
2023/10/18 07:10:55;;;;;;;5.07;0.40;;;;;;;8.06;59.62;100087.09;5333007;26;20110;-95
2023/10/18 07:13:33;;;;;;;1.10;0.85;;;;;;;8.17;59.63;100080.84;5330912;26;20063;-95
2023/10/18 07:16:05;;;;;;;0.00;0.00;;;;;;;8.51;59.66;100088.03;5313586;26;20074;-95
2023/10/18 07:18:33;;;;;;;0.00;0.00;;;;;;;8.66;59.66;100085.19;5312703;26;20072;-95
2023/10/18 07:21:05;;;;;;;0.47;0.47;;;;;;;8.73;59.66;100088.50;5330645;26;20076;-96
2023/10/18 07:23:31;;;;;;;5.87;1.67;;;;;;;8.94;59.67;100093.28;5313486;26;20038;-94
2023/10/18 07:25:56;;;;;;;1.65;1.55;;;;;;;9.01;59.68;100084.50;5330298;26;20100;-94
2023/10/18 07:28:21;;;;;;;10.27;2.87;;;;;;;9.23;59.69;100083.19;5348676;26;20056;-95
2023/10/18 07:30:48;;;;;;;0.65;0.65;;;;;;;9.52;59.71;100084.28;5330212;26;20064;-94
2023/10/18 07:33:15;;;;;;;5.05;4.10;;;;;;;9.49;59.71;100084.34;5311893;26;20020;-95
2023/10/18 07:35:46;;;;;;;0.50;0.47;;;;;;;9.64;59.70;100067.53;5329973;26;20112;-96
2023/10/18 07:38:13;;;;;;;1.65;1.55;;;;;;;9.72;59.71;100063.03;5330374;26;20055;-95
2023/10/18 07:40:41;;;;;;;0.60;0.60;;;;;;;9.98;59.73;100068.47;5329881;26;20119;-95
2023/10/18 07:43:12;;;;;;;1.23;0.45;;;;;;;10.20;59.75;100067.94;5329945;26;20455;-94
2023/10/18 07:45:39;;;;;;;2.92;1.35;;;;;;;10.10;59.74;100067.28;5312689;26;20421;-95
2023/10/18 07:48:05;;;;;;;0.05;0.05;;;;;;;10.35;59.75;100062.34;5311334;26;20056;-95
2023/10/18 07:53:05;;;;;;;1.70;1.60;;;;;;;10.59;59.76;100058.25;5350056;26;20747;-95
2023/10/18 07:55:36;;;;;;;0.13;0.13;;;;;;;10.81;59.78;100054.16;5330750;26;20105;-93
2023/10/18 07:58:06;;;;;;;1.27;0.98;;;;;;;10.81;59.78;100053.31;5334344;26;20055;-96
2023/10/18 08:00:32;;;;;;;;;;;;;;;10.83;59.78;100048.91;5330976;26;20072;-96
2023/10/18 08:02:59;;;;;;;0.20;0.10;;;;;;;10.90;59.78;100038.28;5348507;26;19975;-94
2023/10/18 08:05:30;;;;;;;0.00;0.00;;;;;;;11.14;59.79;100043.69;5330045;26;20126;-95
2023/10/18 08:07:57;;;;;;;3.42;1.00;;;;;;;10.96;59.79;100045.91;5330639;26;20373;-94
2023/10/18 08:10:23;;;;;;;0.25;0.25;;;;;;;11.24;59.80;100050.31;5330015;26;20106;-94
2023/10/18 08:13:07;;;;;;;0.52;0.52;;;;;;;11.30;59.79;100048.38;5329805;26;20060;-94
2023/10/18 08:15:36;;;;;;;0.22;0.22;;;;;;;11.41;59.81;100045.47;5332589;26;20111;-95
2023/10/18 08:18:14;;;;;;;1.17;1.17;;;;;;;11.27;59.80;100039.78;5348855;26;20393;-95
2023/10/18 08:26:05;;;;;;;2.55;0.85;;;;;;;11.84;59.84;100041.53;5331830;26;20047;-95
2023/10/18 08:28:38;;;;;;;0.73;0.73;;;;;;;12.06;59.85;100033.81;5332280;26;20111;-93
2023/10/18 08:31:16;;;;;;;0.10;0.10;;;;;;;12.13;59.84;100027.50;5313995;26;20115;-95
2023/10/18 08:33:42;;;;;;;0.30;0.30;;;;;;;12.12;59.84;100029.28;5313016;26;20443;-95
2023/10/18 08:36:13;;;;;;;26.02;2.62;;;;;;;12.21;59.86;100025.50;5319860;26;20024;-94
2023/10/18 08:38:41;;;;;;;0.25;0.25;;;;;;;12.22;59.86;100024.56;5337135;26;20038;-94
2023/10/18 08:41:13;;;;;;;0.28;0.28;;;;;;;12.31;59.86;100026.03;5331134;26;20084;-95
2023/10/18 08:44:19;;;;;;;0.22;0.10;;;;;;;12.29;59.86;100020.84;5331610;26;20120;-94
2023/10/18 08:49:32;;;;;;;1.15;0.75;;;;;;;12.47;59.87;100017.59;5336636;26;20044;-94
2023/10/18 08:52:06;;;;;;;0.62;0.62;;;;;;;12.46;59.87;100010.66;5331078;26;20056;-94
2023/10/18 08:54:32;;;;;;;0.45;0.45;;;;;;;12.70;59.88;100013.31;5334878;26;20024;-93
2023/10/18 08:56:58;;;;;;;0.88;0.88;;;;;;;12.86;59.89;100011.84;5313494;26;20119;-94
2023/10/18 08:59:24;;;;;;;1.05;0.95;;;;;;;12.99;59.89;100009.59;5312223;26;20060;-94
2023/10/18 09:02:09;;;;;;;4.57;1.45;;;;;;;13.12;59.91;100011.72;5331571;26;20074;-94
2023/10/18 09:04:35;;;;;;;0.28;0.28;;;;;;;13.39;59.92;100003.75;5333503;26;20392;-95
2023/10/18 09:07:01;;;;;;;0.10;0.10;;;;;;;13.52;59.93;99994.50;5349182;26;20047;-95
2023/10/18 09:09:34;;;;;;;0.40;0.40;;;;;;;13.50;59.93;99999.81;5330250;26;20105;-94
2023/10/18 09:12:05;;;;;;;2.47;0.95;;;;;;;13.45;59.92;99998.25;5314161;26;20707;-94
2023/10/18 09:14:31;;;;;;;0.60;0.60;;;;;;;13.70;59.93;99995.50;5313481;26;20135;-95
2023/10/18 09:17:00;;;;;;;0.52;0.30;;;;;;;13.64;59.92;99991.38;5348749;26;20372;-94
2023/10/18 09:19:27;;;;;;;1.75;0.80;;;;;;;13.80;59.94;99987.25;5330833;26;20051;-95
2023/10/18 09:22:01;;;;;;;0.52;0.52;;;;;;;13.97;59.95;99994.41;5330762;26;20187;-94
2023/10/18 09:24:30;;;;;;;3.20;0.82;;;;;;;14.05;59.95;99994.06;5331564;26;20078;-94
2023/10/18 09:26:57;;;;;;;0.00;0.00;;;;;;;14.21;59.96;99984.66;5330635;26;20048;-94
2023/10/18 09:29:24;;;;;;;0.40;0.40;;;;;;;14.23;59.96;99989.81;5312318;26;20066;-94
2023/10/18 09:31:52;;;;;;;0.00;0.00;;;;;;;14.34;59.97;99987.56;5330452;26;20127;-95
2023/10/18 09:34:17;;;;;;;0.30;0.30;;;;;;;14.42;59.98;99982.84;5312446;26;20724;-94
2023/10/18 09:37:11;;;;;;;0.20;0.20;;;;;;;14.57;59.98;99973.50;5330074;26;20082;-96
2023/10/18 09:39:42;;;;;;;0.03;0.03;;;;;;;14.61;59.99;99968.03;5350360;26;20432;-95
2023/10/18 09:42:12;;;;;;;0.10;0.10;;;;;;;14.76;59.99;99982.22;5330925;26;20126;-93
2023/10/18 09:44:41;;;;;;;1.00;0.95;;;;;;;14.75;59.99;99991.00;5330825;26;20094;-94
2023/10/18 09:47:06;;;;;;;0.25;0.25;;;;;;;15.01;60.00;99974.94;5312886;26;20084;-94
2023/10/18 09:49:32;;;;;;;31.40;0.80;;;;;;;15.13;60.01;99981.38;5329968;26;20090;-94
2023/10/18 09:52:00;;;;;;;0.62;0.57;;;;;;;15.24;60.01;99973.00;5332101;26;20060;-93
2023/10/18 09:54:25;;;;;;;1.98;0.50;;;;;;;15.48;60.04;99973.59;5332468;26;20090;-94
2023/10/18 09:56:54;;;;;;;0.10;0.10;;;;;;;15.73;60.05;99975.91;5311862;26;20393;-94
2023/10/18 09:59:26;;;;;;;0.25;0.25;;;;;;;15.70;60.05;99971.66;5330116;26;20044;-94
2023/10/18 10:01:57;;;;;;;0.30;0.30;;;;;;;15.80;60.05;99964.16;5314689;26;20064;-95
2023/10/18 10:04:22;;;;;;;0.70;0.70;;;;;;;15.75;60.05;99969.66;5319553;26;20029;-95
2023/10/18 10:06:52;;;;;;;1.17;1.08;;;;;;;15.83;60.05;99958.75;5336711;26;20076;-94
2023/10/18 10:09:19;;;;;;;2.08;0.80;;;;;;;15.91;60.05;99954.00;5330637;26;20107;-94
2023/10/18 10:11:45;;;;;;;0.68;0.68;;;;;;;16.02;60.07;99956.91;5330338;26;20429;-95
2023/10/18 10:14:21;;;;;;;1.27;0.98;;;;;;;16.01;60.06;99952.59;5311558;26;20024;-95
2023/10/18 10:16:54;;;;;;;0.25;0.25;;;;;;;16.05;60.06;99948.03;5314141;26;20029;-94
2023/10/18 10:19:24;;;;;;;0.20;0.20;;;;;;;16.08;60.06;99947.84;5329720;26;20024;-94
2023/10/18 10:21:50;;;;;;;0.43;0.43;;;;;;;16.24;60.08;99933.88;5330764;26;20329;-95
2023/10/18 10:24:42;;;;;;;1.08;1.08;;;;;;;16.26;60.08;99931.16;5330151;26;20051;-94
2023/10/18 10:27:49;;;;;;;1.20;1.08;;;;;;;16.53;60.09;99924.44;5333757;26;20067;-94
2023/10/18 10:30:03;;;;;;;0.22;0.10;;;;;;;16.56;60.09;99926.03;5336882;26;20024;-94
2023/10/18 10:32:31;;;;;;;0.60;0.15;;;;;;;16.75;60.10;99916.28;5348609;26;20091;-95
2023/10/18 10:35:17;;;;;;;3.30;0.82;;;;;;;16.90;60.10;99917.22;5330300;26;20098;-95
2023/10/18 10:37:46;;;;;;;0.37;0.37;;;;;;;16.75;60.10;99915.41;5313457;26;20075;-94
2023/10/18 10:40:19;;;;;;;1.10;0.70;;;;;;;16.97;60.11;99909.84;5311738;26;20056;-94
2023/10/18 10:42:48;;;;;;;3.00;1.23;;;;;;;17.05;60.12;99905.84;5312301;26;20060;-95
2023/10/18 10:45:35;;;;;;;0.73;0.62;;;;;;;17.10;60.13;99906.44;5330163;26;20067;-94
2023/10/18 10:48:16;;;;;;;0.15;0.15;;;;;;;17.28;60.13;99903.72;5348347;26;20053;-95
2023/10/18 10:50:43;;;;;;;1.17;1.10;;;;;;;17.26;60.13;99905.56;5350866;26;20025;-94
2023/10/18 10:53:09;;;;;;;0.80;0.80;;;;;;;17.29;60.13;99913.31;5313475;26;20109;-94
2023/10/18 10:55:34;;;;;;;0.20;0.20;;;;;;;17.38;60.14;99900.44;5311600;26;20027;-93
2023/10/18 10:58:18;;;;;;;0.30;0.30;;;;;;;17.52;60.14;99891.78;5329748;26;20104;-94
2023/10/18 11:00:59;;;;;;;4.03;0.75;;;;;;;17.54;60.14;99886.41;5331599;26;20067;-94
2023/10/18 11:03:52;;;;;;;3.62;1.67;;;;;;;17.37;60.14;99882.13;5348385;26;20031;-95
2023/10/18 11:06:24;;;;;;;0.90;0.73;;;;;;;17.34;60.14;99883.16;5316744;26;20059;-94
2023/10/18 11:08:53;;;;;;;0.00;0.00;;;;;;;17.55;60.15;99874.94;5329654;26;20025;-94
2023/10/18 11:11:22;;;;;;;0.00;0.00;;;;;;;17.52;60.14;99870.72;5329847;26;20681;-94
2023/10/18 11:13:48;;;;;;;3.72;1.45;;;;;;;17.48;60.14;99866.53;5329752;26;20065;-94
2023/10/18 11:16:15;;;;;;;0.40;0.40;;;;;;;17.38;60.13;99868.03;5311442;26;20116;-94
2023/10/18 11:18:42;;;;;;;0.13;0.13;;;;;;;17.35;60.14;99857.69;5330053;26;20070;-95
2023/10/18 11:23:57;;;;;;;0.03;0.03;;;;;;;17.46;60.14;99860.53;5335867;26;20070;-95
2023/10/18 11:26:27;;;;;;;0.10;0.10;;;;;;;17.46;60.15;99850.84;5312922;26;20078;-95
2023/10/18 11:29:05;;;;;;;1.77;0.82;;;;;;;17.60;60.15;99851.84;5312325;26;20048;-95
2023/10/18 11:31:31;;;;;;;0.03;0.03;;;;;;;17.71;60.16;99838.91;5314731;26;20048;-96
2023/10/18 11:34:04;;;;;;;0.35;0.28;;;;;;;17.84;60.17;99839.03;5339823;26;20095;-94
2023/10/18 11:36:30;;;;;;;2.15;0.85;;;;;;;17.90;60.16;99833.37;5317281;26;20122;-95
2023/10/18 11:41:41;;;;;;;0.20;0.20;;;;;;;18.04;60.18;99823.69;5351599;26;20089;-95
2023/10/18 11:44:07;;;;;;;0.15;0.15;;;;;;;18.00;60.17;99821.34;5329841;26;20067;-95
2023/10/18 11:46:58;;;;;;;0.17;0.17;;;;;;;18.15;60.18;99827.44;5329721;26;20429;-95
2023/10/18 11:49:35;;;;;;;0.05;0.05;;;;;;;18.16;60.18;99814.19;5332040;26;20047;-95
2023/10/18 11:52:00;;;;;;;0.65;0.65;;;;;;;18.21;60.18;99819.16;5316507;26;20028;-94
2023/10/18 11:54:33;;;;;;;0.70;0.40;;;;;;;18.20;60.18;99815.66;5329937;26;20083;-95
2023/10/18 11:57:00;;;;;;;0.73;0.73;;;;;;;18.20;60.19;99809.56;5311625;26;20064;-95
2023/10/18 11:59:25;;;;;;;0.98;0.98;;;;;;;18.33;60.19;99806.06;5311570;26;20052;-95
2023/10/18 12:02:05;;;;;;;0.62;0.62;;;;;;;18.38;60.20;99814.53;5311389;26;20069;-94
2023/10/18 12:04:37;;;;;;;1.10;1.02;;;;;;;18.46;60.21;99806.16;5330375;26;20424;-94
2023/10/18 12:07:03;;;;;;;0.50;0.47;;;;;;;18.21;60.19;99805.97;5331805;26;20064;-95
2023/10/18 12:09:31;;;;;;;1.23;0.30;;;;;;;18.31;60.21;99799.22;5330399;26;20071;-96
2023/10/18 12:11:57;;;;;;;0.20;0.20;;;;;;;18.33;60.19;99803.44;5330673;26;20075;-95
2023/10/18 12:14:22;;;;;;;0.52;0.52;;;;;;;18.46;60.20;99795.63;5312097;26;20110;-95
2023/10/18 12:16:52;;;;;;;0.20;0.20;;;;;;;18.45;60.20;99795.69;5330372;26;20119;-95
2023/10/18 12:19:18;;;;;;;0.40;0.40;;;;;;;18.33;60.19;99789.41;5312793;26;20051;-95
2023/10/18 12:21:54;;;;;;;0.30;0.30;;;;;;;18.29;60.19;99791.41;5330882;26;20093;-95
2023/10/18 12:24:20;;;;;;;0.75;0.75;;;;;;;18.21;60.18;99782.25;5315427;26;20132;-95
2023/10/18 12:26:46;;;;;;;0.22;0.22;;;;;;;18.25;60.19;99775.88;5330891;26;20080;-95
2023/10/18 12:29:16;;;;;;;0.93;0.82;;;;;;;18.13;60.18;99774.00;5330549;26;20066;-95
2023/10/18 12:31:43;;;;;;;0.20;0.20;;;;;;;18.20;60.19;99764.78;5313580;26;20048;-94
2023/10/18 12:34:14;;;;;;;0.37;0.37;;;;;;;18.02;60.18;99767.63;5313040;26;20071;-94